Thursday, September 20, 2018, 6:16 PM EDT
Back to Local

KSFZ, Pawtucket, North Central State Airport

Location: Smithfield, RI, United States Lat: 41.917
Local Time: 6:16 PM EDT (22:16 GMT) Lon: -71.5
Time Zone: US/Eastern Elev: 439 ft

Show me the last for .
Show Decoded

2018-09-20 17:56 METAR KSFZ 202156Z AUTO 11006KT 10SM FEW016 16/13 A3026 RMK AO2 SLP193 T01610133
                 =
2018-09-20 17:31 METAR KSFZ 202131Z AUTO 12007KT 10SM BKN018 BKN027 BKN045 17/13 A3025 RMK AO2 =
2018-09-20 16:56 METAR KSFZ 202056Z AUTO 10008KT 10SM SCT018 BKN045 18/13 A3025 RMK AO2 SLP189
                 T01780133 57001 =
2018-09-20 16:29 METAR KSFZ 202029Z AUTO 11007KT 10SM FEW022 OVC045 18/14 A3025 RMK AO2 =
2018-09-20 16:22 METAR KSFZ 202022Z AUTO 11007KT 10SM BKN022 OVC045 18/14 A3025 RMK AO2 =
2018-09-20 15:56 METAR KSFZ 201956Z AUTO 06006KT 10SM FEW022 OVC043 18/13 A3025 RMK AO2 SLP189
                 T01780128 =
2018-09-20 15:34 METAR KSFZ 201934Z AUTO VRB06KT 10SM FEW022 BKN034 OVC043 18/14 A3025 RMK AO2 =
2018-09-20 15:05 METAR KSFZ 201905Z AUTO 09006KT 10SM BKN022 BKN031 OVC045 18/13 A3025 RMK AO2 =
2018-09-20 14:56 METAR KSFZ 201856Z AUTO 07006KT 10SM SCT022 OVC045 19/13 A3025 RMK AO2 SLP190
                 T01890133 =
2018-09-20 14:24 METAR KSFZ 201824Z AUTO 07006KT 10SM FEW020 OVC045 19/13 A3025 RMK AO2 =
2018-09-20 14:17 METAR KSFZ 201817Z AUTO VRB06KT 10SM BKN020 OVC045 19/13 A3025 RMK AO2 =
2018-09-20 14:08 METAR KSFZ 201808Z AUTO 05007KT 10SM SCT020 OVC043 19/13 A3025 RMK AO2 =
2018-09-20 13:56 METAR KSFZ 201756Z AUTO 04009KT 10SM BKN020 BKN038 OVC046 19/14 A3025 RMK AO2
                 SLP190 T01890139 10194 20150 56005 =
2018-09-20 13:52 METAR KSFZ 201752Z AUTO 08005KT 10SM BKN020 BKN036 OVC046 18/14 A3025 RMK AO2 =
2018-09-20 12:56 METAR KSFZ 201656Z AUTO 06005KT 10SM SCT026 OVC043 19/13 A3026 RMK AO2 SLP192
                 T01890133 =
2018-09-20 12:31 METAR KSFZ 201631Z AUTO 08006KT 10SM BKN026 OVC046 18/13 A3026 RMK AO2 =
2018-09-20 11:56 METAR KSFZ 201556Z AUTO 06007KT 10SM FEW024 OVC042 18/13 A3027 RMK AO2 SLP194
                 T01780128 =
2018-09-20 11:17 METAR KSFZ 201517Z AUTO 04008KT 10SM FEW022 SCT033 18/13 A3027 RMK AO2 =
2018-09-20 10:56 METAR KSFZ 201456Z AUTO 04009KT 10SM BKN024 BKN030 18/13 A3027 RMK AO2 SLP194
                 T01780128 53022 =
2018-09-20 09:56 METAR KSFZ 201356Z AUTO 05010KT 10SM OVC019 17/13 A3024 RMK AO2 SLP187 T01670128
                 =
2018-09-20 09:36 METAR KSFZ 201336Z AUTO 03010KT 10SM OVC015 17/13 A3024 RMK AO2 =
2018-09-20 08:56 METAR KSFZ 201256Z AUTO 03012KT 10SM OVC011 16/14 A3022 RMK AO2 SLP178 T01610139
                 =
2018-09-20 08:45 METAR KSFZ 201245Z AUTO 02009KT 10SM OVC011 16/14 A3022 RMK AO2 =
2018-09-20 07:56 METAR KSFZ 201156Z AUTO 04007KT 10SM OVC009 15/13 A3020 RMK AO2 SLP172 7////
                 T01500133 10150 20133 53022 =
2018-09-20 06:56 METAR KSFZ 201056Z AUTO 02004KT 10SM BKN007 OVC011 13/13 A3017 RMK AO2 SLP163
                 T01330128 =
2018-09-20 05:56 METAR KSFZ 200956Z AUTO 03009KT 10SM OVC007 14/13 A3015 RMK AO2 SLP155 T01390128
                 =
2018-09-20 05:08 METAR KSFZ 200908Z AUTO 01007KT 10SM OVC009 14/13 A3014 RMK AO2 =
2018-09-20 04:56 METAR KSFZ 200856Z AUTO 02007KT 10SM OVC011 14/13 A3013 RMK AO2 SLP150 T01440128
                 50006 =
2018-09-20 03:56 METAR KSFZ 200756Z AUTO 02008KT 10SM OVC011 14/13 A3014 RMK AO2 SLP151 T01440128
                 =
2018-09-20 03:10 METAR KSFZ 200710Z AUTO 36007KT 10SM BKN011 14/13 A3013 RMK AO2 =
2018-09-20 02:56 METAR KSFZ 200656Z AUTO 36005KT 10SM FEW011 SCT049 14/13 A3012 RMK AO2 SLP146
                 T01390128 =
2018-09-20 01:56 METAR KSFZ 200556Z AUTO 05007KT 10SM FEW021 OVC045 14/13 A3012 RMK AO2 SLP144
                 T01440128 10150 20139 50008 =
2018-09-20 00:56 METAR KSFZ 200456Z AUTO 01006KT 10SM BKN023 OVC046 14/13 A3012 RMK AO2 SLP146
                 T01440128 401940139 =
2018-09-19 23:56 METAR KSFZ 200356Z AUTO 35005KT 10SM BKN016 OVC023 14/13 A3011 RMK AO2 SLPNO
                 T01440133 =
2018-09-19 22:56 METAR KSFZ 200256Z AUTO 04005KT 10SM SCT014 SCT020 BKN025 14/13 A3009 RMK AO2
                 SLPNO T01390128 51012 =
2018-09-19 22:30 METAR KSFZ 200230Z AUTO 02006KT 10SM BKN014 OVC020 15/13 A3010 RMK AO2 =
2018-09-19 21:56 METAR KSFZ 200156Z AUTO 04005KT 10SM OVC019 15/13 A3009 RMK AO2 SLPNO T01500133
                 =
2018-09-19 20:56 METAR KSFZ 200056Z AUTO 05005KT 10SM SCT014 OVC022 14/13 A3008 RMK AO2 SLPNO
                 T01440128 =
2018-09-19 20:45 METAR KSFZ 200045Z AUTO 07005KT 10SM SCT014 OVC022 14/13 A3007 RMK AO2 =
2018-09-19 20:37 METAR KSFZ 200037Z AUTO 06004KT 10SM BKN012 OVC022 14/13 A3007 RMK AO2 =
2018-09-19 20:18 METAR KSFZ 200018Z AUTO 07004KT 10SM FEW012 BKN024 14/13 A3007 RMK AO2 =
2018-09-19 20:06 METAR KSFZ 200006Z AUTO 06005KT 10SM SCT016 SCT028 14/13 A3006 RMK AO2 =
2018-09-19 19:56 METAR KSFZ 192356Z AUTO 07004KT 10SM BKN016 14/13 A3006 RMK AO2 SLPNO T01440128
                 10178 20144 51023 =
2018-09-19 18:56 METAR KSFZ 192256Z AUTO 07006KT 10SM OVC014 16/14 A3004 RMK AO2 SLPNO T01560139
                 =
2018-09-19 18:38 METAR KSFZ 192238Z AUTO 06004KT 10SM BKN012 OVC046 16/14 A3003 RMK AO2 =

Support USWX by starting your Amazon purchase here.